Noack, Texas
Current Conditions -  °F | °C
As of 9:58 AM on Friday 19 Dec 2014 (Local Time) from KGRK Reporting Station
Overcast Overcast  
Wind Chill: 42°   Ceiling: 400
Heat Index: 48°   Visibility: 10mi
Dew Point: 47°   Wind: 15mph
Humidity: 98%   Direction: 360°N
Pressure: 30.16"   Gusts: NA
Location:  30.5793°N, 97.5096°W
Report Text: KGRK 191558Z AUTO 36013KT 10SM OVC004 09/09 A3016 RMK AO2 SLP215 T00890086
Loading
Personal Weather Stations






























Interactive Weather Map New forecast layout! Learn more

10-Day Weather Forecast

Advertisements
Track Severe Weather on mobile